sensor_id;sensor_type;location;lat;lon;timestamp;P1;durP1;ratioP1;P2;durP2;ratioP2
56455;SDS011;42354;53.218;6.564;2023-02-03T00:01:29;11.88;;;1.35;;
56455;SDS011;42354;53.218;6.564;2023-02-03T00:03:54;11.85;;;2.60;;
56455;SDS011;42354;53.218;6.564;2023-02-03T00:06:19;17.52;;;2.20;;
56455;SDS011;42354;53.218;6.564;2023-02-03T00:08:45;14.27;;;2.35;;
56455;SDS011;42354;53.218;6.564;2023-02-03T00:11:11;11.38;;;2.28;;
56455;SDS011;42354;53.218;6.564;2023-02-03T00:13:36;6.65;;;1.70;;
56455;SDS011;42354;53.218;6.564;2023-02-03T00:16:02;9.38;;;1.77;;
56455;SDS011;42354;53.218;6.564;2023-02-03T00:18:27;8.40;;;1.75;;
56455;SDS011;42354;53.218;6.564;2023-02-03T00:20:53;5.80;;;1.45;;
56455;SDS011;42354;53.218;6.564;2023-02-03T00:23:18;7.47;;;1.60;;
56455;SDS011;42354;53.218;6.564;2023-02-03T00:25:44;10.88;;;1.63;;
56455;SDS011;42354;53.218;6.564;2023-02-03T00:28:09;9.52;;;2.10;;
56455;SDS011;42354;53.218;6.564;2023-02-03T00:30:34;11.35;;;1.60;;
56455;SDS011;42354;53.218;6.564;2023-02-03T00:33:01;7.43;;;1.85;;
56455;SDS011;42354;53.218;6.564;2023-02-03T00:35:27;11.68;;;2.25;;
56455;SDS011;42354;53.218;6.564;2023-02-03T00:37:53;9.38;;;2.20;;
56455;SDS011;42354;53.218;6.564;2023-02-03T00:40:20;11.82;;;2.22;;
56455;SDS011;42354;53.218;6.564;2023-02-03T00:42:46;11.23;;;2.28;;
56455;SDS011;42354;53.218;6.564;2023-02-03T00:45:12;18.73;;;1.90;;
56455;SDS011;42354;53.218;6.564;2023-02-03T00:47:37;9.65;;;1.65;;
56455;SDS011;42354;53.218;6.564;2023-02-03T00:50:03;12.88;;;2.50;;
56455;SDS011;42354;53.218;6.564;2023-02-03T00:52:30;14.07;;;1.95;;
56455;SDS011;42354;53.218;6.564;2023-02-03T00:54:55;14.93;;;2.53;;
56455;SDS011;42354;53.218;6.564;2023-02-03T00:57:20;15.73;;;1.70;;
56455;SDS011;42354;53.218;6.564;2023-02-03T00:59:46;9.32;;;1.70;;
56455;SDS011;42354;53.218;6.564;2023-02-03T01:02:11;8.75;;;1.50;;
56455;SDS011;42354;53.218;6.564;2023-02-03T01:04:36;13.07;;;2.63;;
56455;SDS011;42354;53.218;6.564;2023-02-03T01:07:02;18.48;;;2.50;;
56455;SDS011;42354;53.218;6.564;2023-02-03T01:09:27;11.00;;;2.20;;
56455;SDS011;42354;53.218;6.564;2023-02-03T01:11:53;15.02;;;2.50;;
56455;SDS011;42354;53.218;6.564;2023-02-03T01:14:18;12.00;;;2.33;;
56455;SDS011;42354;53.218;6.564;2023-02-03T01:16:44;14.27;;;2.13;;
56455;SDS011;42354;53.218;6.564;2023-02-03T01:19:09;14.65;;;1.95;;
56455;SDS011;42354;53.218;6.564;2023-02-03T01:21:34;12.13;;;2.17;;
56455;SDS011;42354;53.218;6.564;2023-02-03T01:24:00;16.15;;;1.80;;
56455;SDS011;42354;53.218;6.564;2023-02-03T01:26:26;15.75;;;2.40;;
56455;SDS011;42354;53.218;6.564;2023-02-03T01:28:56;15.20;;;2.38;;
56455;SDS011;42354;53.218;6.564;2023-02-03T01:31:24;9.52;;;1.88;;
56455;SDS011;42354;53.218;6.564;2023-02-03T01:33:52;12.63;;;2.47;;
56455;SDS011;42354;53.218;6.564;2023-02-03T01:36:18;14.18;;;2.42;;
56455;SDS011;42354;53.218;6.564;2023-02-03T01:38:44;11.43;;;1.52;;
56455;SDS011;42354;53.218;6.564;2023-02-03T01:41:14;9.40;;;2.00;;
56455;SDS011;42354;53.218;6.564;2023-02-03T01:43:42;10.52;;;2.20;;
56455;SDS011;42354;53.218;6.564;2023-02-03T01:48:53;14.32;;;2.83;;
56455;SDS011;42354;53.218;6.564;2023-02-03T01:51:24;13.63;;;2.55;;
56455;SDS011;42354;53.218;6.564;2023-02-03T01:53:50;13.65;;;2.35;;
56455;SDS011;42354;53.218;6.564;2023-02-03T01:56:17;10.38;;;2.15;;
56455;SDS011;42354;53.218;6.564;2023-02-03T01:58:42;11.85;;;1.88;;
56455;SDS011;42354;53.218;6.564;2023-02-03T02:01:11;10.23;;;1.80;;
56455;SDS011;42354;53.218;6.564;2023-02-03T02:03:48;11.65;;;2.30;;
56455;SDS011;42354;53.218;6.564;2023-02-03T02:06:17;16.88;;;3.00;;
56455;SDS011;42354;53.218;6.564;2023-02-03T02:08:43;15.52;;;2.58;;
56455;SDS011;42354;53.218;6.564;2023-02-03T02:11:12;12.40;;;2.63;;
56455;SDS011;42354;53.218;6.564;2023-02-03T02:13:38;12.65;;;1.98;;
56455;SDS011;42354;53.218;6.564;2023-02-03T02:18:57;17.38;;;2.90;;
56455;SDS011;42354;53.218;6.564;2023-02-03T02:24:12;14.85;;;2.55;;
56455;SDS011;42354;53.218;6.564;2023-02-03T02:29:41;12.30;;;2.15;;
56455;SDS011;42354;53.218;6.564;2023-02-03T02:35:41;9.82;;;2.00;;
56455;SDS011;42354;53.218;6.564;2023-02-03T02:38:18;14.80;;;2.80;;
56455;SDS011;42354;53.218;6.564;2023-02-03T02:40:56;9.45;;;2.80;;
56455;SDS011;42354;53.218;6.564;2023-02-03T02:43:34;13.68;;;2.88;;
56455;SDS011;42354;53.218;6.564;2023-02-03T02:46:10;22.10;;;2.30;;
56455;SDS011;42354;53.218;6.564;2023-02-03T02:48:54;11.80;;;2.33;;
56455;SDS011;42354;53.218;6.564;2023-02-03T02:51:28;12.23;;;2.13;;
56455;SDS011;42354;53.218;6.564;2023-02-03T02:53:56;10.50;;;2.50;;
56455;SDS011;42354;53.218;6.564;2023-02-03T02:56:26;18.95;;;3.17;;
56455;SDS011;42354;53.218;6.564;2023-02-03T02:58:55;13.30;;;1.83;;
56455;SDS011;42354;53.218;6.564;2023-02-03T03:01:22;11.98;;;1.85;;
56455;SDS011;42354;53.218;6.564;2023-02-03T03:03:47;12.77;;;2.83;;
56455;SDS011;42354;53.218;6.564;2023-02-03T03:09:12;18.38;;;3.13;;
56455;SDS011;42354;53.218;6.564;2023-02-03T03:11:46;14.25;;;2.05;;
56455;SDS011;42354;53.218;6.564;2023-02-03T03:14:14;19.98;;;3.55;;
56455;SDS011;42354;53.218;6.564;2023-02-03T03:16:44;11.25;;;2.13;;
56455;SDS011;42354;53.218;6.564;2023-02-03T03:19:16;14.48;;;1.88;;
56455;SDS011;42354;53.218;6.564;2023-02-03T03:21:46;16.67;;;2.13;;
56455;SDS011;42354;53.218;6.564;2023-02-03T03:24:23;15.30;;;2.40;;
56455;SDS011;42354;53.218;6.564;2023-02-03T03:29:30;15.90;;;3.20;;
56455;SDS011;42354;53.218;6.564;2023-02-03T03:32:02;13.93;;;2.42;;
56455;SDS011;42354;53.218;6.564;2023-02-03T03:34:28;15.68;;;2.63;;
56455;SDS011;42354;53.218;6.564;2023-02-03T03:39:53;17.65;;;3.28;;
56455;SDS011;42354;53.218;6.564;2023-02-03T03:42:28;21.85;;;3.97;;
56455;SDS011;42354;53.218;6.564;2023-02-03T03:45:27;16.85;;;2.88;;
56455;SDS011;42354;53.218;6.564;2023-02-03T03:48:04;11.83;;;2.40;;
56455;SDS011;42354;53.218;6.564;2023-02-03T03:50:31;16.70;;;3.28;;
56455;SDS011;42354;53.218;6.564;2023-02-03T03:53:00;16.75;;;2.13;;
56455;SDS011;42354;53.218;6.564;2023-02-03T03:55:28;20.25;;;2.80;;
56455;SDS011;42354;53.218;6.564;2023-02-03T03:58:03;20.88;;;3.83;;
56455;SDS011;42354;53.218;6.564;2023-02-03T04:00:33;15.30;;;3.30;;
56455;SDS011;42354;53.218;6.564;2023-02-03T04:03:04;14.75;;;2.50;;
56455;SDS011;42354;53.218;6.564;2023-02-03T04:05:35;16.17;;;3.17;;
56455;SDS011;42354;53.218;6.564;2023-02-03T04:08:03;19.10;;;2.88;;
56455;SDS011;42354;53.218;6.564;2023-02-03T04:10:38;20.45;;;2.33;;
56455;SDS011;42354;53.218;6.564;2023-02-03T04:13:06;18.02;;;3.33;;
56455;SDS011;42354;53.218;6.564;2023-02-03T04:15:32;16.45;;;2.30;;
56455;SDS011;42354;53.218;6.564;2023-02-03T04:17:58;20.70;;;3.03;;
56455;SDS011;42354;53.218;6.564;2023-02-03T04:20:25;21.92;;;2.83;;
56455;SDS011;42354;53.218;6.564;2023-02-03T04:22:51;21.05;;;2.90;;
56455;SDS011;42354;53.218;6.564;2023-02-03T04:25:17;11.30;;;2.40;;
56455;SDS011;42354;53.218;6.564;2023-02-03T04:27:42;18.75;;;3.42;;
56455;SDS011;42354;53.218;6.564;2023-02-03T04:30:08;15.40;;;2.70;;
56455;SDS011;42354;53.218;6.564;2023-02-03T04:32:33;14.95;;;3.15;;
56455;SDS011;42354;53.218;6.564;2023-02-03T04:35:02;19.75;;;3.05;;
56455;SDS011;42354;53.218;6.564;2023-02-03T04:37:29;18.45;;;3.40;;
56455;SDS011;42354;53.218;6.564;2023-02-03T04:39:54;21.20;;;4.25;;
56455;SDS011;42354;53.218;6.564;2023-02-03T04:42:20;18.17;;;3.25;;
56455;SDS011;42354;53.218;6.564;2023-02-03T04:44:46;19.90;;;2.78;;
56455;SDS011;42354;53.218;6.564;2023-02-03T04:47:12;23.67;;;3.38;;
56455;SDS011;42354;53.218;6.564;2023-02-03T04:49:37;10.02;;;1.98;;
56455;SDS011;42354;53.218;6.564;2023-02-03T04:52:03;20.85;;;3.85;;
56455;SDS011;42354;53.218;6.564;2023-02-03T04:54:28;18.77;;;2.13;;
56455;SDS011;42354;53.218;6.564;2023-02-03T04:56:54;14.82;;;2.50;;
56455;SDS011;42354;53.218;6.564;2023-02-03T04:59:19;17.70;;;3.42;;
56455;SDS011;42354;53.218;6.564;2023-02-03T05:01:44;13.02;;;2.15;;
56455;SDS011;42354;53.218;6.564;2023-02-03T05:04:10;20.48;;;2.97;;
56455;SDS011;42354;53.218;6.564;2023-02-03T05:06:35;15.13;;;3.13;;
56455;SDS011;42354;53.218;6.564;2023-02-03T05:09:00;19.20;;;2.92;;
56455;SDS011;42354;53.218;6.564;2023-02-03T05:11:26;19.88;;;2.58;;
56455;SDS011;42354;53.218;6.564;2023-02-03T05:13:52;15.73;;;2.85;;
56455;SDS011;42354;53.218;6.564;2023-02-03T05:16:18;17.13;;;3.50;;
56455;SDS011;42354;53.218;6.564;2023-02-03T05:18:44;19.13;;;3.17;;
56455;SDS011;42354;53.218;6.564;2023-02-03T05:21:09;16.52;;;3.60;;
56455;SDS011;42354;53.218;6.564;2023-02-03T05:23:36;17.00;;;3.85;;
56455;SDS011;42354;53.218;6.564;2023-02-03T05:26:01;21.13;;;3.08;;
56455;SDS011;42354;53.218;6.564;2023-02-03T05:28:26;15.90;;;3.70;;
56455;SDS011;42354;53.218;6.564;2023-02-03T05:30:52;16.52;;;2.78;;
56455;SDS011;42354;53.218;6.564;2023-02-03T05:33:17;23.20;;;3.65;;
56455;SDS011;42354;53.218;6.564;2023-02-03T05:35:42;12.68;;;2.35;;
56455;SDS011;42354;53.218;6.564;2023-02-03T05:38:08;15.35;;;3.22;;
56455;SDS011;42354;53.218;6.564;2023-02-03T05:40:33;16.83;;;3.15;;
56455;SDS011;42354;53.218;6.564;2023-02-03T05:43:17;16.60;;;2.50;;
56455;SDS011;42354;53.218;6.564;2023-02-03T05:45:43;14.45;;;3.38;;
56455;SDS011;42354;53.218;6.564;2023-02-03T05:48:08;18.33;;;3.53;;
56455;SDS011;42354;53.218;6.564;2023-02-03T05:50:34;14.57;;;2.55;;
56455;SDS011;42354;53.218;6.564;2023-02-03T05:53:00;16.88;;;4.15;;
56455;SDS011;42354;53.218;6.564;2023-02-03T05:55:27;17.63;;;3.38;;
56455;SDS011;42354;53.218;6.564;2023-02-03T05:57:53;16.45;;;4.82;;
56455;SDS011;42354;53.218;6.564;2023-02-03T06:00:19;17.40;;;3.03;;
56455;SDS011;42354;53.218;6.564;2023-02-03T06:02:52;15.50;;;2.80;;
56455;SDS011;42354;53.218;6.564;2023-02-03T06:07:45;20.92;;;3.35;;
56455;SDS011;42354;53.218;6.564;2023-02-03T06:10:10;19.30;;;3.60;;
56455;SDS011;42354;53.218;6.564;2023-02-03T06:12:36;22.08;;;3.15;;
56455;SDS011;42354;53.218;6.564;2023-02-03T06:15:02;20.88;;;3.22;;
56455;SDS011;42354;53.218;6.564;2023-02-03T06:17:27;16.45;;;3.85;;
56455;SDS011;42354;53.218;6.564;2023-02-03T06:19:53;18.10;;;3.22;;
56455;SDS011;42354;53.218;6.564;2023-02-03T06:22:18;17.88;;;2.88;;
56455;SDS011;42354;53.218;6.564;2023-02-03T06:24:43;18.35;;;3.88;;
56455;SDS011;42354;53.218;6.564;2023-02-03T06:27:10;26.08;;;4.07;;
56455;SDS011;42354;53.218;6.564;2023-02-03T06:29:35;28.35;;;4.45;;
56455;SDS011;42354;53.218;6.564;2023-02-03T06:32:01;26.13;;;4.47;;
56455;SDS011;42354;53.218;6.564;2023-02-03T06:34:26;19.48;;;4.72;;
56455;SDS011;42354;53.218;6.564;2023-02-03T06:36:51;22.92;;;4.80;;
56455;SDS011;42354;53.218;6.564;2023-02-03T06:39:17;19.00;;;4.45;;
56455;SDS011;42354;53.218;6.564;2023-02-03T06:41:42;27.58;;;5.85;;
56455;SDS011;42354;53.218;6.564;2023-02-03T06:44:07;19.20;;;3.60;;
56455;SDS011;42354;53.218;6.564;2023-02-03T06:46:32;18.20;;;3.30;;
56455;SDS011;42354;53.218;6.564;2023-02-03T06:48:58;26.33;;;5.82;;
56455;SDS011;42354;53.218;6.564;2023-02-03T06:51:23;25.92;;;4.68;;
56455;SDS011;42354;53.218;6.564;2023-02-03T06:53:49;21.33;;;3.65;;
56455;SDS011;42354;53.218;6.564;2023-02-03T06:56:14;19.60;;;3.78;;
56455;SDS011;42354;53.218;6.564;2023-02-03T06:58:39;26.27;;;4.40;;
56455;SDS011;42354;53.218;6.564;2023-02-03T07:01:05;24.48;;;4.80;;
56455;SDS011;42354;53.218;6.564;2023-02-03T07:03:30;27.73;;;5.80;;
56455;SDS011;42354;53.218;6.564;2023-02-03T07:05:55;28.10;;;5.45;;
56455;SDS011;42354;53.218;6.564;2023-02-03T07:08:21;19.52;;;4.60;;
56455;SDS011;42354;53.218;6.564;2023-02-03T07:10:46;25.83;;;4.90;;
56455;SDS011;42354;53.218;6.564;2023-02-03T07:13:11;25.98;;;4.97;;
56455;SDS011;42354;53.218;6.564;2023-02-03T07:15:37;21.05;;;4.43;;
56455;SDS011;42354;53.218;6.564;2023-02-03T07:18:02;29.55;;;5.00;;
56455;SDS011;42354;53.218;6.564;2023-02-03T07:20:28;26.25;;;5.68;;
56455;SDS011;42354;53.218;6.564;2023-02-03T07:22:54;26.55;;;6.25;;
56455;SDS011;42354;53.218;6.564;2023-02-03T07:25:21;27.17;;;5.03;;
56455;SDS011;42354;53.218;6.564;2023-02-03T07:27:46;23.73;;;4.50;;
56455;SDS011;42354;53.218;6.564;2023-02-03T07:30:12;24.90;;;5.35;;
56455;SDS011;42354;53.218;6.564;2023-02-03T07:32:38;29.60;;;6.40;;
56455;SDS011;42354;53.218;6.564;2023-02-03T07:35:03;30.70;;;7.65;;
56455;SDS011;42354;53.218;6.564;2023-02-03T07:37:28;29.65;;;7.00;;
56455;SDS011;42354;53.218;6.564;2023-02-03T07:39:54;26.20;;;6.95;;
56455;SDS011;42354;53.218;6.564;2023-02-03T07:42:19;28.80;;;6.90;;
56455;SDS011;42354;53.218;6.564;2023-02-03T07:44:44;31.17;;;6.43;;
56455;SDS011;42354;53.218;6.564;2023-02-03T07:47:10;25.58;;;5.55;;
56455;SDS011;42354;53.218;6.564;2023-02-03T07:49:35;39.25;;;7.15;;
56455;SDS011;42354;53.218;6.564;2023-02-03T07:52:00;36.58;;;5.78;;
56455;SDS011;42354;53.218;6.564;2023-02-03T07:54:26;33.60;;;8.85;;
56455;SDS011;42354;53.218;6.564;2023-02-03T07:56:51;33.65;;;6.57;;
56455;SDS011;42354;53.218;6.564;2023-02-03T07:59:18;31.75;;;6.25;;
56455;SDS011;42354;53.218;6.564;2023-02-03T08:01:43;34.20;;;8.63;;
56455;SDS011;42354;53.218;6.564;2023-02-03T08:04:08;29.40;;;6.57;;
56455;SDS011;42354;53.218;6.564;2023-02-03T08:06:36;31.27;;;5.85;;
56455;SDS011;42354;53.218;6.564;2023-02-03T08:09:01;41.78;;;6.85;;
56455;SDS011;42354;53.218;6.564;2023-02-03T08:11:27;26.48;;;5.38;;
56455;SDS011;42354;53.218;6.564;2023-02-03T08:13:52;34.65;;;7.75;;
56455;SDS011;42354;53.218;6.564;2023-02-03T08:16:17;27.80;;;6.60;;
56455;SDS011;42354;53.218;6.564;2023-02-03T08:18:43;31.38;;;6.13;;
56455;SDS011;42354;53.218;6.564;2023-02-03T08:21:08;40.42;;;8.05;;
56455;SDS011;42354;53.218;6.564;2023-02-03T08:23:34;33.28;;;6.68;;
56455;SDS011;42354;53.218;6.564;2023-02-03T08:25:59;38.95;;;7.43;;
56455;SDS011;42354;53.218;6.564;2023-02-03T08:28:24;30.80;;;6.35;;
56455;SDS011;42354;53.218;6.564;2023-02-03T08:30:50;34.03;;;6.00;;
56455;SDS011;42354;53.218;6.564;2023-02-03T08:33:15;37.42;;;8.43;;
56455;SDS011;42354;53.218;6.564;2023-02-03T08:35:44;33.80;;;6.65;;
56455;SDS011;42354;53.218;6.564;2023-02-03T08:38:10;44.42;;;6.25;;
56455;SDS011;42354;53.218;6.564;2023-02-03T08:40:35;36.58;;;6.18;;
56455;SDS011;42354;53.218;6.564;2023-02-03T08:43:01;30.88;;;5.32;;
56455;SDS011;42354;53.218;6.564;2023-02-03T08:45:26;40.45;;;6.57;;
56455;SDS011;42354;53.218;6.564;2023-02-03T08:47:51;28.58;;;6.97;;
56455;SDS011;42354;53.218;6.564;2023-02-03T08:50:17;40.38;;;8.02;;
56455;SDS011;42354;53.218;6.564;2023-02-03T08:52:43;48.50;;;8.88;;
56455;SDS011;42354;53.218;6.564;2023-02-03T08:55:09;33.08;;;6.72;;
56455;SDS011;42354;53.218;6.564;2023-02-03T08:57:35;34.25;;;5.57;;
56455;SDS011;42354;53.218;6.564;2023-02-03T09:00:02;37.10;;;7.07;;
56455;SDS011;42354;53.218;6.564;2023-02-03T09:02:28;36.83;;;6.25;;
56455;SDS011;42354;53.218;6.564;2023-02-03T09:04:54;36.70;;;6.05;;
56455;SDS011;42354;53.218;6.564;2023-02-03T09:07:19;34.13;;;4.95;;
56455;SDS011;42354;53.218;6.564;2023-02-03T09:09:45;38.35;;;5.82;;
56455;SDS011;42354;53.218;6.564;2023-02-03T09:12:10;36.33;;;6.03;;
56455;SDS011;42354;53.218;6.564;2023-02-03T09:14:36;38.83;;;7.97;;
56455;SDS011;42354;53.218;6.564;2023-02-03T09:17:02;37.75;;;7.35;;
56455;SDS011;42354;53.218;6.564;2023-02-03T09:19:29;37.63;;;7.43;;
56455;SDS011;42354;53.218;6.564;2023-02-03T09:21:55;36.20;;;5.28;;
56455;SDS011;42354;53.218;6.564;2023-02-03T09:24:23;33.17;;;5.20;;
56455;SDS011;42354;53.218;6.564;2023-02-03T09:26:49;39.60;;;7.07;;
56455;SDS011;42354;53.218;6.564;2023-02-03T09:29:15;43.13;;;7.13;;
56455;SDS011;42354;53.218;6.564;2023-02-03T09:31:40;45.22;;;7.55;;
56455;SDS011;42354;53.218;6.564;2023-02-03T09:34:06;33.47;;;6.10;;
56455;SDS011;42354;53.218;6.564;2023-02-03T09:36:31;28.02;;;5.97;;
56455;SDS011;42354;53.218;6.564;2023-02-03T09:38:57;36.22;;;7.00;;
56455;SDS011;42354;53.218;6.564;2023-02-03T09:41:33;46.90;;;7.30;;
56455;SDS011;42354;53.218;6.564;2023-02-03T09:44:23;41.80;;;5.72;;
56455;SDS011;42354;53.218;6.564;2023-02-03T09:47:08;42.55;;;8.10;;
56455;SDS011;42354;53.218;6.564;2023-02-03T09:49:57;43.58;;;8.32;;
56455;SDS011;42354;53.218;6.564;2023-02-03T09:52:26;37.30;;;7.22;;
56455;SDS011;42354;53.218;6.564;2023-02-03T10:00:51;41.08;;;8.35;;
56455;SDS011;42354;53.218;6.564;2023-02-03T10:14:51;46.63;;;7.97;;
56455;SDS011;42354;53.218;6.564;2023-02-03T10:17:29;41.65;;;6.38;;
56455;SDS011;42354;53.218;6.564;2023-02-03T10:20:10;36.88;;;7.72;;
56455;SDS011;42354;53.218;6.564;2023-02-03T10:22:47;38.35;;;6.43;;
56455;SDS011;42354;53.218;6.564;2023-02-03T10:25:24;46.63;;;7.70;;
56455;SDS011;42354;53.218;6.564;2023-02-03T10:28:18;48.42;;;10.18;;
56455;SDS011;42354;53.218;6.564;2023-02-03T10:30:58;41.83;;;7.43;;
56455;SDS011;42354;53.218;6.564;2023-02-03T10:33:29;48.38;;;6.85;;
56455;SDS011;42354;53.218;6.564;2023-02-03T10:40:59;44.63;;;8.32;;
56455;SDS011;42354;53.218;6.564;2023-02-03T10:43:25;46.47;;;9.30;;
56455;SDS011;42354;53.218;6.564;2023-02-03T10:46:15;46.22;;;8.43;;
56455;SDS011;42354;53.218;6.564;2023-02-03T10:48:44;48.90;;;9.63;;
56455;SDS011;42354;53.218;6.564;2023-02-03T10:51:23;58.53;;;7.80;;
56455;SDS011;42354;53.218;6.564;2023-02-03T10:53:51;49.85;;;9.63;;
56455;SDS011;42354;53.218;6.564;2023-02-03T10:56:18;52.70;;;10.20;;
56455;SDS011;42354;53.218;6.564;2023-02-03T10:58:55;45.88;;;8.40;;
56455;SDS011;42354;53.218;6.564;2023-02-03T11:01:26;50.83;;;9.90;;
56455;SDS011;42354;53.218;6.564;2023-02-03T11:07:10;30.38;;;5.63;;
56455;SDS011;42354;53.218;6.564;2023-02-03T11:09:48;53.83;;;8.88;;
56455;SDS011;42354;53.218;6.564;2023-02-03T11:12:18;48.55;;;9.90;;
56455;SDS011;42354;53.218;6.564;2023-02-03T11:19:47;50.22;;;7.30;;
56455;SDS011;42354;53.218;6.564;2023-02-03T11:25:01;52.03;;;8.05;;
56455;SDS011;42354;53.218;6.564;2023-02-03T11:27:30;53.90;;;7.40;;
56455;SDS011;42354;53.218;6.564;2023-02-03T11:30:16;44.70;;;11.68;;
56455;SDS011;42354;53.218;6.564;2023-02-03T11:32:49;57.65;;;9.95;;
56455;SDS011;42354;53.218;6.564;2023-02-03T11:37:41;50.08;;;7.55;;
56455;SDS011;42354;53.218;6.564;2023-02-03T11:42:33;60.45;;;10.38;;
56455;SDS011;42354;53.218;6.564;2023-02-03T11:48:14;52.63;;;12.88;;
56455;SDS011;42354;53.218;6.564;2023-02-03T11:53:45;56.25;;;9.50;;
56455;SDS011;42354;53.218;6.564;2023-02-03T12:07:12;46.20;;;7.85;;
56455;SDS011;42354;53.218;6.564;2023-02-03T12:09:52;45.00;;;6.70;;
56455;SDS011;42354;53.218;6.564;2023-02-03T12:15:42;60.10;;;10.80;;
56455;SDS011;42354;53.218;6.564;2023-02-03T12:21:39;59.60;;;9.82;;
56455;SDS011;42354;53.218;6.564;2023-02-03T12:24:28;34.75;;;6.40;;
56455;SDS011;42354;53.218;6.564;2023-02-03T12:27:10;46.90;;;7.03;;
56455;SDS011;42354;53.218;6.564;2023-02-03T12:29:46;41.70;;;9.60;;
56455;SDS011;42354;53.218;6.564;2023-02-03T12:40:34;50.97;;;6.30;;
56455;SDS011;42354;53.218;6.564;2023-02-03T12:43:16;51.20;;;7.25;;
56455;SDS011;42354;53.218;6.564;2023-02-03T12:45:56;44.10;;;11.93;;
56455;SDS011;42354;53.218;6.564;2023-02-03T12:48:28;47.00;;;10.32;;
56455;SDS011;42354;53.218;6.564;2023-02-03T12:51:02;44.70;;;8.80;;
56455;SDS011;42354;53.218;6.564;2023-02-03T12:53:32;43.67;;;8.15;;
56455;SDS011;42354;53.218;6.564;2023-02-03T12:56:07;48.75;;;8.95;;
56455;SDS011;42354;53.218;6.564;2023-02-03T13:04:07;47.15;;;9.98;;
56455;SDS011;42354;53.218;6.564;2023-02-03T13:10:01;47.00;;;9.00;;
56455;SDS011;42354;53.218;6.564;2023-02-03T13:12:51;60.10;;;10.15;;
56455;SDS011;42354;53.218;6.564;2023-02-03T13:15:25;58.85;;;10.07;;
56455;SDS011;42354;53.218;6.564;2023-02-03T13:20:23;51.38;;;10.07;;
56455;SDS011;42354;53.218;6.564;2023-02-03T13:22:51;69.85;;;9.88;;
56455;SDS011;42354;53.218;6.564;2023-02-03T13:25:28;46.13;;;10.15;;
56455;SDS011;42354;53.218;6.564;2023-02-03T13:31:07;60.47;;;11.50;;
56455;SDS011;42354;53.218;6.564;2023-02-03T13:44:19;48.28;;;8.63;;
56455;SDS011;42354;53.218;6.564;2023-02-03T13:46:50;49.30;;;8.02;;
56455;SDS011;42354;53.218;6.564;2023-02-03T13:49:50;47.30;;;9.45;;
56455;SDS011;42354;53.218;6.564;2023-02-03T13:58:23;59.83;;;9.95;;
56455;SDS011;42354;53.218;6.564;2023-02-03T14:05:43;51.90;;;8.32;;
56455;SDS011;42354;53.218;6.564;2023-02-03T14:11:37;49.47;;;9.60;;
56455;SDS011;42354;53.218;6.564;2023-02-03T14:14:39;49.83;;;7.18;;
56455;SDS011;42354;53.218;6.564;2023-02-03T14:16:51;40.63;;;7.68;;
56455;SDS011;42354;53.218;6.564;2023-02-03T14:21:48;38.50;;;8.32;;
56455;SDS011;42354;53.218;6.564;2023-02-03T14:24:18;44.55;;;6.10;;
56455;SDS011;42354;53.218;6.564;2023-02-03T14:26:46;42.25;;;8.63;;
56455;SDS011;42354;53.218;6.564;2023-02-03T14:29:26;37.80;;;7.28;;
56455;SDS011;42354;53.218;6.564;2023-02-03T14:36:54;37.47;;;6.03;;
56455;SDS011;42354;53.218;6.564;2023-02-03T14:44:20;34.20;;;5.03;;
56455;SDS011;42354;53.218;6.564;2023-02-03T14:46:54;38.42;;;7.03;;
56455;SDS011;42354;53.218;6.564;2023-02-03T14:49:36;30.83;;;6.47;;
56455;SDS011;42354;53.218;6.564;2023-02-03T14:57:59;29.98;;;5.85;;
56455;SDS011;42354;53.218;6.564;2023-02-03T15:00:29;39.38;;;6.28;;
56455;SDS011;42354;53.218;6.564;2023-02-03T15:05:41;41.58;;;7.55;;
56455;SDS011;42354;53.218;6.564;2023-02-03T15:08:30;32.45;;;7.60;;
56455;SDS011;42354;53.218;6.564;2023-02-03T15:13:44;52.80;;;8.98;;
56455;SDS011;42354;53.218;6.564;2023-02-03T15:16:12;40.63;;;7.47;;
56455;SDS011;42354;53.218;6.564;2023-02-03T15:18:42;45.75;;;6.28;;
56455;SDS011;42354;53.218;6.564;2023-02-03T15:21:17;40.15;;;6.18;;
56455;SDS011;42354;53.218;6.564;2023-02-03T15:23:44;40.28;;;6.28;;
56455;SDS011;42354;53.218;6.564;2023-02-03T15:26:17;47.10;;;7.00;;
56455;SDS011;42354;53.218;6.564;2023-02-03T15:28:58;38.03;;;8.57;;
56455;SDS011;42354;53.218;6.564;2023-02-03T15:31:36;42.15;;;6.10;;
56455;SDS011;42354;53.218;6.564;2023-02-03T15:37:07;36.92;;;5.80;;
56455;SDS011;42354;53.218;6.564;2023-02-03T15:42:28;42.15;;;6.32;;
56455;SDS011;42354;53.218;6.564;2023-02-03T15:47:33;40.58;;;6.38;;
56455;SDS011;42354;53.218;6.564;2023-02-03T15:50:27;43.72;;;8.15;;
56455;SDS011;42354;53.218;6.564;2023-02-03T15:52:55;34.17;;;5.60;;
56455;SDS011;42354;53.218;6.564;2023-02-03T15:58:00;37.88;;;5.68;;
56455;SDS011;42354;53.218;6.564;2023-02-03T16:02:53;47.85;;;8.15;;
56455;SDS011;42354;53.218;6.564;2023-02-03T16:05:26;42.38;;;9.30;;
56455;SDS011;42354;53.218;6.564;2023-02-03T16:07:53;39.20;;;7.18;;
56455;SDS011;42354;53.218;6.564;2023-02-03T16:10:24;39.88;;;8.00;;
56455;SDS011;42354;53.218;6.564;2023-02-03T16:13:16;48.17;;;8.18;;
56455;SDS011;42354;53.218;6.564;2023-02-03T16:18:55;44.85;;;6.97;;
56455;SDS011;42354;53.218;6.564;2023-02-03T16:21:32;33.78;;;6.78;;
56455;SDS011;42354;53.218;6.564;2023-02-03T16:24:00;42.03;;;9.30;;
56455;SDS011;42354;53.218;6.564;2023-02-03T16:26:28;39.13;;;6.25;;
56455;SDS011;42354;53.218;6.564;2023-02-03T16:29:03;43.42;;;6.63;;
56455;SDS011;42354;53.218;6.564;2023-02-03T16:31:52;52.92;;;7.63;;
56455;SDS011;42354;53.218;6.564;2023-02-03T16:34:36;46.53;;;10.00;;
56455;SDS011;42354;53.218;6.564;2023-02-03T16:40:08;49.22;;;7.78;;
56455;SDS011;42354;53.218;6.564;2023-02-03T16:42:52;45.20;;;7.72;;
56455;SDS011;42354;53.218;6.564;2023-02-03T16:45:36;51.42;;;6.88;;
56455;SDS011;42354;53.218;6.564;2023-02-03T16:48:21;47.22;;;6.63;;
56455;SDS011;42354;53.218;6.564;2023-02-03T16:51:12;42.45;;;6.97;;
56455;SDS011;42354;53.218;6.564;2023-02-03T16:53:40;45.67;;;7.07;;
56455;SDS011;42354;53.218;6.564;2023-02-03T16:56:08;48.30;;;6.63;;
56455;SDS011;42354;53.218;6.564;2023-02-03T16:58:33;39.35;;;6.55;;
56455;SDS011;42354;53.218;6.564;2023-02-03T17:01:00;36.55;;;6.57;;
56455;SDS011;42354;53.218;6.564;2023-02-03T17:03:27;33.65;;;5.93;;
56455;SDS011;42354;53.218;6.564;2023-02-03T17:05:53;33.92;;;5.78;;
56455;SDS011;42354;53.218;6.564;2023-02-03T17:08:22;36.83;;;7.22;;
56455;SDS011;42354;53.218;6.564;2023-02-03T17:10:49;41.70;;;6.68;;
56455;SDS011;42354;53.218;6.564;2023-02-03T17:13:15;43.92;;;7.10;;
56455;SDS011;42354;53.218;6.564;2023-02-03T17:15:43;37.67;;;6.18;;
56455;SDS011;42354;53.218;6.564;2023-02-03T17:18:14;54.47;;;7.68;;
56455;SDS011;42354;53.218;6.564;2023-02-03T17:20:40;37.50;;;5.90;;
56455;SDS011;42354;53.218;6.564;2023-02-03T17:23:07;44.42;;;7.10;;
56455;SDS011;42354;53.218;6.564;2023-02-03T17:25:33;43.60;;;8.48;;
56455;SDS011;42354;53.218;6.564;2023-02-03T17:28:02;45.03;;;9.90;;
56455;SDS011;42354;53.218;6.564;2023-02-03T17:30:28;47.03;;;7.32;;
56455;SDS011;42354;53.218;6.564;2023-02-03T17:32:58;41.13;;;5.90;;
56455;SDS011;42354;53.218;6.564;2023-02-03T17:35:24;41.75;;;7.05;;
56455;SDS011;42354;53.218;6.564;2023-02-03T17:37:49;41.85;;;6.75;;
56455;SDS011;42354;53.218;6.564;2023-02-03T17:40:15;41.67;;;6.00;;
56455;SDS011;42354;53.218;6.564;2023-02-03T17:42:40;36.85;;;6.25;;
56455;SDS011;42354;53.218;6.564;2023-02-03T17:45:06;43.92;;;6.63;;